sensor_id;sensor_type;location;lat;lon;timestamp;temperature;humidity
68977;SHT31;56029;52.568;13.588;2022-12-10T00:00:35;-2.56;99.99
68977;SHT31;56029;52.568;13.588;2022-12-10T00:03:14;-2.51;99.99
68977;SHT31;56029;52.568;13.588;2022-12-10T00:05:40;-2.46;99.99
68977;SHT31;56029;52.568;13.588;2022-12-10T00:08:05;-2.51;99.99
68977;SHT31;56029;52.568;13.588;2022-12-10T00:10:31;-2.52;99.99
68977;SHT31;56029;52.568;13.588;2022-12-10T00:12:56;-2.46;99.99
68977;SHT31;56029;52.568;13.588;2022-12-10T00:15:22;-2.52;99.99
68977;SHT31;56029;52.568;13.588;2022-12-10T00:17:47;-2.52;99.99
68977;SHT31;56029;52.568;13.588;2022-12-10T00:20:13;-2.48;99.99
68977;SHT31;56029;52.568;13.588;2022-12-10T00:22:42;-2.59;99.99
68977;SHT31;56029;52.568;13.588;2022-12-10T00:25:08;-2.56;99.99
68977;SHT31;56029;52.568;13.588;2022-12-10T00:27:33;-2.58;99.99
68977;SHT31;56029;52.568;13.588;2022-12-10T00:29:59;-2.59;99.99
68977;SHT31;56029;52.568;13.588;2022-12-10T00:32:24;-2.62;99.99
68977;SHT31;56029;52.568;13.588;2022-12-10T00:34:50;-2.55;99.99
68977;SHT31;56029;52.568;13.588;2022-12-10T00:37:16;-2.59;99.99
68977;SHT31;56029;52.568;13.588;2022-12-10T00:39:41;-2.55;99.99
68977;SHT31;56029;52.568;13.588;2022-12-10T00:42:07;-2.58;99.99
68977;SHT31;56029;52.568;13.588;2022-12-10T00:44:32;-2.58;99.99
68977;SHT31;56029;52.568;13.588;2022-12-10T00:46:58;-2.52;99.99
68977;SHT31;56029;52.568;13.588;2022-12-10T00:49:24;-2.62;99.99
68977;SHT31;56029;52.568;13.588;2022-12-10T00:51:50;-2.56;99.99
68977;SHT31;56029;52.568;13.588;2022-12-10T00:54:15;-2.61;99.99
68977;SHT31;56029;52.568;13.588;2022-12-10T00:56:41;-2.66;99.99
68977;SHT31;56029;52.568;13.588;2022-12-10T00:59:07;-2.70;99.99
68977;SHT31;56029;52.568;13.588;2022-12-10T01:01:38;-2.61;99.99
68977;SHT31;56029;52.568;13.588;2022-12-10T01:04:13;-2.62;99.99
68977;SHT31;56029;52.568;13.588;2022-12-10T01:06:48;-2.66;99.99
68977;SHT31;56029;52.568;13.588;2022-12-10T01:09:16;-2.75;99.99
68977;SHT31;56029;52.568;13.588;2022-12-10T01:11:44;-2.77;99.99
68977;SHT31;56029;52.568;13.588;2022-12-10T01:14:12;-2.79;99.99
68977;SHT31;56029;52.568;13.588;2022-12-10T01:16:38;-2.79;99.99
68977;SHT31;56029;52.568;13.588;2022-12-10T01:19:04;-2.80;99.99
68977;SHT31;56029;52.568;13.588;2022-12-10T01:21:31;-2.75;99.99
68977;SHT31;56029;52.568;13.588;2022-12-10T01:23:57;-2.80;99.99
68977;SHT31;56029;52.568;13.588;2022-12-10T01:26:26;-2.82;99.99
68977;SHT31;56029;52.568;13.588;2022-12-10T01:28:53;-2.77;99.99
68977;SHT31;56029;52.568;13.588;2022-12-10T01:31:25;-2.76;99.99
68977;SHT31;56029;52.568;13.588;2022-12-10T01:33:51;-2.75;99.99
68977;SHT31;56029;52.568;13.588;2022-12-10T01:36:20;-2.70;99.99
68977;SHT31;56029;52.568;13.588;2022-12-10T01:38:46;-2.77;99.99
68977;SHT31;56029;52.568;13.588;2022-12-10T01:41:21;-2.77;99.99
68977;SHT31;56029;52.568;13.588;2022-12-10T01:44:02;-2.77;99.99
68977;SHT31;56029;52.568;13.588;2022-12-10T01:46:48;-2.69;99.99
68977;SHT31;56029;52.568;13.588;2022-12-10T01:49:36;-2.83;99.99
68977;SHT31;56029;52.568;13.588;2022-12-10T01:52:03;-2.83;99.99
68977;SHT31;56029;52.568;13.588;2022-12-10T01:54:32;-2.80;99.99
68977;SHT31;56029;52.568;13.588;2022-12-10T01:57:04;-2.73;99.99
68977;SHT31;56029;52.568;13.588;2022-12-10T01:59:30;-2.79;99.99
68977;SHT31;56029;52.568;13.588;2022-12-10T02:07:54;-2.75;99.99
68977;SHT31;56029;52.568;13.588;2022-12-10T02:10:36;-2.70;99.99
68977;SHT31;56029;52.568;13.588;2022-12-10T02:13:17;-2.77;99.99
68977;SHT31;56029;52.568;13.588;2022-12-10T02:15:51;-2.84;99.99
68977;SHT31;56029;52.568;13.588;2022-12-10T02:18:31;-2.90;99.99
68977;SHT31;56029;52.568;13.588;2022-12-10T02:21:03;-2.91;99.99
68977;SHT31;56029;52.568;13.588;2022-12-10T02:23:42;-2.97;99.99
68977;SHT31;56029;52.568;13.588;2022-12-10T02:26:15;-3.03;99.99
68977;SHT31;56029;52.568;13.588;2022-12-10T02:28:51;-3.04;99.99
68977;SHT31;56029;52.568;13.588;2022-12-10T02:31:21;-3.12;99.99
68977;SHT31;56029;52.568;13.588;2022-12-10T02:33:51;-3.17;99.99
68977;SHT31;56029;52.568;13.588;2022-12-10T02:36:18;-3.17;99.99
68977;SHT31;56029;52.568;13.588;2022-12-10T02:38:48;-3.22;99.99
68977;SHT31;56029;52.568;13.588;2022-12-10T02:41:20;-3.32;99.99
68977;SHT31;56029;52.568;13.588;2022-12-10T02:43:50;-3.40;99.99
68977;SHT31;56029;52.568;13.588;2022-12-10T02:46:17;-3.45;99.99
68977;SHT31;56029;52.568;13.588;2022-12-10T02:48:46;-3.52;99.99
68977;SHT31;56029;52.568;13.588;2022-12-10T02:51:13;-3.55;99.99
68977;SHT31;56029;52.568;13.588;2022-12-10T02:53:43;-3.55;99.99
68977;SHT31;56029;52.568;13.588;2022-12-10T02:56:28;-3.61;99.99
68977;SHT31;56029;52.568;13.588;2022-12-10T02:59:23;-3.62;99.99
68977;SHT31;56029;52.568;13.588;2022-12-10T03:01:56;-3.65;99.99
68977;SHT31;56029;52.568;13.588;2022-12-10T03:04:34;-3.68;99.99
68977;SHT31;56029;52.568;13.588;2022-12-10T03:07:10;-3.70;99.99
68977;SHT31;56029;52.568;13.588;2022-12-10T03:09:43;-3.72;99.99
68977;SHT31;56029;52.568;13.588;2022-12-10T03:12:19;-3.70;99.99
68977;SHT31;56029;52.568;13.588;2022-12-10T03:14:46;-3.68;99.99
68977;SHT31;56029;52.568;13.588;2022-12-10T03:17:13;-3.62;99.99
68977;SHT31;56029;52.568;13.588;2022-12-10T03:19:44;-3.66;99.99
68977;SHT31;56029;52.568;13.588;2022-12-10T03:22:11;-3.63;99.99
68977;SHT31;56029;52.568;13.588;2022-12-10T03:24:41;-3.61;99.99
68977;SHT31;56029;52.568;13.588;2022-12-10T03:27:09;-3.56;99.99
68977;SHT31;56029;52.568;13.588;2022-12-10T03:29:40;-3.48;99.99
68977;SHT31;56029;52.568;13.588;2022-12-10T03:32:07;-3.45;99.99
68977;SHT31;56029;52.568;13.588;2022-12-10T03:34:33;-3.42;99.99
68977;SHT31;56029;52.568;13.588;2022-12-10T03:37:03;-3.38;99.99
68977;SHT31;56029;52.568;13.588;2022-12-10T03:39:30;-3.37;99.99
68977;SHT31;56029;52.568;13.588;2022-12-10T03:41:57;-3.37;99.99
68977;SHT31;56029;52.568;13.588;2022-12-10T03:44:31;-3.34;99.99
68977;SHT31;56029;52.568;13.588;2022-12-10T03:46:57;-3.35;99.99
68977;SHT31;56029;52.568;13.588;2022-12-10T03:49:23;-3.34;99.99
68977;SHT31;56029;52.568;13.588;2022-12-10T03:51:49;-3.31;99.99
68977;SHT31;56029;52.568;13.588;2022-12-10T03:54:15;-3.31;99.99
68977;SHT31;56029;52.568;13.588;2022-12-10T03:56:40;-3.30;99.99
68977;SHT31;56029;52.568;13.588;2022-12-10T03:59:06;-3.28;99.99
68977;SHT31;56029;52.568;13.588;2022-12-10T04:01:31;-3.20;99.99
68977;SHT31;56029;52.568;13.588;2022-12-10T04:03:57;-3.14;99.99
68977;SHT31;56029;52.568;13.588;2022-12-10T04:06:22;-3.01;99.99
68977;SHT31;56029;52.568;13.588;2022-12-10T04:08:51;-2.96;99.99
68977;SHT31;56029;52.568;13.588;2022-12-10T04:11:17;-2.87;99.99
68977;SHT31;56029;52.568;13.588;2022-12-10T04:13:43;-2.80;99.99
68977;SHT31;56029;52.568;13.588;2022-12-10T04:16:29;-2.72;99.99
68977;SHT31;56029;52.568;13.588;2022-12-10T04:19:07;-2.68;99.99
68977;SHT31;56029;52.568;13.588;2022-12-10T04:21:38;-2.61;99.99
68977;SHT31;56029;52.568;13.588;2022-12-10T04:24:28;-2.55;99.99
68977;SHT31;56029;52.568;13.588;2022-12-10T04:27:17;-2.48;99.99
68977;SHT31;56029;52.568;13.588;2022-12-10T04:29:44;-2.44;99.99
68977;SHT31;56029;52.568;13.588;2022-12-10T04:32:09;-2.38;99.99
68977;SHT31;56029;52.568;13.588;2022-12-10T04:34:35;-2.38;99.99
68977;SHT31;56029;52.568;13.588;2022-12-10T04:37:02;-2.35;99.99
68977;SHT31;56029;52.568;13.588;2022-12-10T04:39:28;-2.32;99.99
68977;SHT31;56029;52.568;13.588;2022-12-10T04:41:54;-2.24;99.99
68977;SHT31;56029;52.568;13.588;2022-12-10T04:44:20;-2.27;99.99
68977;SHT31;56029;52.568;13.588;2022-12-10T04:46:46;-2.22;99.99
68977;SHT31;56029;52.568;13.588;2022-12-10T04:49:12;-2.18;99.99
68977;SHT31;56029;52.568;13.588;2022-12-10T04:51:39;-2.21;99.99
68977;SHT31;56029;52.568;13.588;2022-12-10T04:54:05;-2.17;99.99
68977;SHT31;56029;52.568;13.588;2022-12-10T04:56:31;-2.12;99.99
68977;SHT31;56029;52.568;13.588;2022-12-10T04:58:58;-2.14;99.99
68977;SHT31;56029;52.568;13.588;2022-12-10T05:01:24;-2.11;99.99
68977;SHT31;56029;52.568;13.588;2022-12-10T05:03:50;-2.08;99.99
68977;SHT31;56029;52.568;13.588;2022-12-10T05:06:16;-2.15;99.99
68977;SHT31;56029;52.568;13.588;2022-12-10T05:08:43;-2.12;99.99
68977;SHT31;56029;52.568;13.588;2022-12-10T05:11:11;-2.12;99.99
68977;SHT31;56029;52.568;13.588;2022-12-10T05:13:38;-2.12;99.99
68977;SHT31;56029;52.568;13.588;2022-12-10T05:16:05;-2.10;99.99
68977;SHT31;56029;52.568;13.588;2022-12-10T05:18:32;-2.05;99.99
68977;SHT31;56029;52.568;13.588;2022-12-10T05:20:59;-2.14;99.99
68977;SHT31;56029;52.568;13.588;2022-12-10T05:23:24;-2.12;99.99
68977;SHT31;56029;52.568;13.588;2022-12-10T05:26:10;-2.11;99.99
68977;SHT31;56029;52.568;13.588;2022-12-10T05:28:38;-2.14;99.99
68977;SHT31;56029;52.568;13.588;2022-12-10T05:31:05;-2.08;99.99
68977;SHT31;56029;52.568;13.588;2022-12-10T05:33:33;-2.08;99.99
68977;SHT31;56029;52.568;13.588;2022-12-10T05:36:01;-2.10;99.99
68977;SHT31;56029;52.568;13.588;2022-12-10T05:38:29;-2.12;99.99
68977;SHT31;56029;52.568;13.588;2022-12-10T05:40:55;-2.11;99.92
68977;SHT31;56029;52.568;13.588;2022-12-10T05:43:21;-2.05;99.99
68977;SHT31;56029;52.568;13.588;2022-12-10T05:45:50;-2.04;99.99
68977;SHT31;56029;52.568;13.588;2022-12-10T05:48:15;-2.00;99.99
68977;SHT31;56029;52.568;13.588;2022-12-10T05:50:41;-2.05;99.98
68977;SHT31;56029;52.568;13.588;2022-12-10T05:53:07;-2.11;99.99
68977;SHT31;56029;52.568;13.588;2022-12-10T05:55:33;-2.03;99.99
68977;SHT31;56029;52.568;13.588;2022-12-10T05:57:59;-2.01;99.99
68977;SHT31;56029;52.568;13.588;2022-12-10T06:00:27;-2.00;99.99
68977;SHT31;56029;52.568;13.588;2022-12-10T06:02:54;-1.98;99.99
68977;SHT31;56029;52.568;13.588;2022-12-10T06:05:20;-2.07;99.99
68977;SHT31;56029;52.568;13.588;2022-12-10T06:07:45;-2.07;99.63
68977;SHT31;56029;52.568;13.588;2022-12-10T06:10:11;-2.05;99.99
68977;SHT31;56029;52.568;13.588;2022-12-10T06:12:37;-2.03;99.99
68977;SHT31;56029;52.568;13.588;2022-12-10T06:15:04;-2.00;99.99
68977;SHT31;56029;52.568;13.588;2022-12-10T06:17:30;-1.98;99.99
68977;SHT31;56029;52.568;13.588;2022-12-10T06:19:55;-2.01;99.99
68977;SHT31;56029;52.568;13.588;2022-12-10T06:22:21;-1.98;99.99
68977;SHT31;56029;52.568;13.588;2022-12-10T06:24:46;-2.03;99.99
68977;SHT31;56029;52.568;13.588;2022-12-10T06:27:12;-2.00;99.99
68977;SHT31;56029;52.568;13.588;2022-12-10T06:29:38;-1.98;99.99
68977;SHT31;56029;52.568;13.588;2022-12-10T06:32:04;-2.04;99.99
68977;SHT31;56029;52.568;13.588;2022-12-10T06:34:29;-2.05;99.99
68977;SHT31;56029;52.568;13.588;2022-12-10T06:36:55;-2.04;99.99
68977;SHT31;56029;52.568;13.588;2022-12-10T06:39:20;-2.04;99.99
68977;SHT31;56029;52.568;13.588;2022-12-10T06:41:46;-2.05;99.99
68977;SHT31;56029;52.568;13.588;2022-12-10T06:44:12;-2.04;99.86
68977;SHT31;56029;52.568;13.588;2022-12-10T06:46:39;-2.01;99.90
68977;SHT31;56029;52.568;13.588;2022-12-10T06:49:06;-2.00;99.88
68977;SHT31;56029;52.568;13.588;2022-12-10T06:51:32;-2.04;99.68
68977;SHT31;56029;52.568;13.588;2022-12-10T06:53:57;-2.07;99.81
68977;SHT31;56029;52.568;13.588;2022-12-10T06:56:23;-2.08;99.85
68977;SHT31;56029;52.568;13.588;2022-12-10T06:58:48;-2.07;99.99
68977;SHT31;56029;52.568;13.588;2022-12-10T07:01:23;-2.10;99.94
68977;SHT31;56029;52.568;13.588;2022-12-10T07:03:52;-2.10;99.99
68977;SHT31;56029;52.568;13.588;2022-12-10T07:06:19;-2.07;99.99
68977;SHT31;56029;52.568;13.588;2022-12-10T07:08:45;-2.14;99.90
68977;SHT31;56029;52.568;13.588;2022-12-10T07:11:14;-2.08;99.99
68977;SHT31;56029;52.568;13.588;2022-12-10T07:13:40;-2.12;99.92
68977;SHT31;56029;52.568;13.588;2022-12-10T07:16:21;-2.08;99.91
68977;SHT31;56029;52.568;13.588;2022-12-10T07:18:47;-2.01;99.97
68977;SHT31;56029;52.568;13.588;2022-12-10T07:21:21;-2.11;99.47
68977;SHT31;56029;52.568;13.588;2022-12-10T07:23:47;-2.07;99.61
68977;SHT31;56029;52.568;13.588;2022-12-10T07:26:13;-2.00;99.68
68977;SHT31;56029;52.568;13.588;2022-12-10T07:28:39;-2.00;99.64
68977;SHT31;56029;52.568;13.588;2022-12-10T07:31:07;-2.00;99.50
68977;SHT31;56029;52.568;13.588;2022-12-10T07:33:32;-2.04;99.57
68977;SHT31;56029;52.568;13.588;2022-12-10T07:35:58;-1.97;99.55
68977;SHT31;56029;52.568;13.588;2022-12-10T07:38:24;-2.01;99.33
68977;SHT31;56029;52.568;13.588;2022-12-10T07:40:50;-2.05;99.66
68977;SHT31;56029;52.568;13.588;2022-12-10T07:43:16;-2.03;99.92
68977;SHT31;56029;52.568;13.588;2022-12-10T07:45:42;-1.94;99.67
68977;SHT31;56029;52.568;13.588;2022-12-10T07:48:07;-1.95;99.75
68977;SHT31;56029;52.568;13.588;2022-12-10T07:50:33;-1.93;99.84
68977;SHT31;56029;52.568;13.588;2022-12-10T07:52:59;-1.95;99.93
68977;SHT31;56029;52.568;13.588;2022-12-10T07:55:25;-1.94;99.98
68977;SHT31;56029;52.568;13.588;2022-12-10T07:57:50;-2.00;99.99
68977;SHT31;56029;52.568;13.588;2022-12-10T08:00:16;-1.91;99.99
68977;SHT31;56029;52.568;13.588;2022-12-10T08:02:42;-1.91;99.99
68977;SHT31;56029;52.568;13.588;2022-12-10T08:05:08;-1.91;99.99
68977;SHT31;56029;52.568;13.588;2022-12-10T08:07:34;-1.87;99.99
68977;SHT31;56029;52.568;13.588;2022-12-10T08:09:59;-1.80;99.99
68977;SHT31;56029;52.568;13.588;2022-12-10T08:12:25;-1.82;99.99
68977;SHT31;56029;52.568;13.588;2022-12-10T08:14:51;-1.79;99.99
68977;SHT31;56029;52.568;13.588;2022-12-10T08:17:16;-1.72;99.99
68977;SHT31;56029;52.568;13.588;2022-12-10T08:19:42;-1.79;99.99
68977;SHT31;56029;52.568;13.588;2022-12-10T08:22:07;-1.80;99.99
68977;SHT31;56029;52.568;13.588;2022-12-10T08:24:33;-1.74;99.99
68977;SHT31;56029;52.568;13.588;2022-12-10T08:26:58;-1.77;99.59
68977;SHT31;56029;52.568;13.588;2022-12-10T08:29:24;-1.70;99.99
68977;SHT31;56029;52.568;13.588;2022-12-10T08:31:49;-1.72;99.99
68977;SHT31;56029;52.568;13.588;2022-12-10T08:34:17;-1.77;99.99
68977;SHT31;56029;52.568;13.588;2022-12-10T08:36:43;-1.76;99.99
68977;SHT31;56029;52.568;13.588;2022-12-10T08:39:09;-1.66;99.99
68977;SHT31;56029;52.568;13.588;2022-12-10T08:41:35;-1.69;99.95
68977;SHT31;56029;52.568;13.588;2022-12-10T08:44:01;-1.72;99.99
68977;SHT31;56029;52.568;13.588;2022-12-10T08:46:26;-1.70;99.99
68977;SHT31;56029;52.568;13.588;2022-12-10T08:48:54;-1.69;99.99
68977;SHT31;56029;52.568;13.588;2022-12-10T08:51:20;-1.63;99.99
68977;SHT31;56029;52.568;13.588;2022-12-10T08:53:47;-1.63;99.99
68977;SHT31;56029;52.568;13.588;2022-12-10T08:56:12;-1.59;99.97
68977;SHT31;56029;52.568;13.588;2022-12-10T08:58:38;-1.67;99.83
68977;SHT31;56029;52.568;13.588;2022-12-10T09:01:13;-1.59;99.99
68977;SHT31;56029;52.568;13.588;2022-12-10T09:03:39;-1.69;99.92
68977;SHT31;56029;52.568;13.588;2022-12-10T09:06:11;-1.66;99.96
68977;SHT31;56029;52.568;13.588;2022-12-10T09:08:37;-1.73;99.90
68977;SHT31;56029;52.568;13.588;2022-12-10T09:11:11;-1.63;99.99
68977;SHT31;56029;52.568;13.588;2022-12-10T09:13:37;-1.63;99.99
68977;SHT31;56029;52.568;13.588;2022-12-10T09:16:03;-1.63;99.42
68977;SHT31;56029;52.568;13.588;2022-12-10T09:18:29;-1.51;99.97
68977;SHT31;56029;52.568;13.588;2022-12-10T09:20:54;-1.53;99.79
68977;SHT31;56029;52.568;13.588;2022-12-10T09:23:20;-1.52;99.74
68977;SHT31;56029;52.568;13.588;2022-12-10T09:25:45;-1.43;99.96
68977;SHT31;56029;52.568;13.588;2022-12-10T09:28:11;-1.41;99.65
68977;SHT31;56029;52.568;13.588;2022-12-10T09:30:36;-1.45;99.76
68977;SHT31;56029;52.568;13.588;2022-12-10T09:33:02;-1.46;99.88
68977;SHT31;56029;52.568;13.588;2022-12-10T09:35:27;-1.43;99.85
68977;SHT31;56029;52.568;13.588;2022-12-10T09:37:53;-1.42;99.68
68977;SHT31;56029;52.568;13.588;2022-12-10T09:40:28;-1.39;99.87
68977;SHT31;56029;52.568;13.588;2022-12-10T09:43:04;-1.49;99.63
68977;SHT31;56029;52.568;13.588;2022-12-10T09:45:59;-1.41;99.46
68977;SHT31;56029;52.568;13.588;2022-12-10T09:48:36;-1.38;99.82
68977;SHT31;56029;52.568;13.588;2022-12-10T09:51:10;-1.43;99.99
68977;SHT31;56029;52.568;13.588;2022-12-10T09:53:38;-1.39;99.84
68977;SHT31;56029;52.568;13.588;2022-12-10T09:56:08;-1.34;99.70
68977;SHT31;56029;52.568;13.588;2022-12-10T09:58:38;-1.35;99.98
68977;SHT31;56029;52.568;13.588;2022-12-10T10:01:05;-1.38;99.90
68977;SHT31;56029;52.568;13.588;2022-12-10T10:03:37;-1.31;99.79
68977;SHT31;56029;52.568;13.588;2022-12-10T10:06:04;-1.34;99.92
68977;SHT31;56029;52.568;13.588;2022-12-10T10:08:36;-1.28;99.71
68977;SHT31;56029;52.568;13.588;2022-12-10T10:11:04;-1.31;99.74
68977;SHT31;56029;52.568;13.588;2022-12-10T10:13:44;-1.28;99.42
68977;SHT31;56029;52.568;13.588;2022-12-10T10:16:34;-1.30;99.47
68977;SHT31;56029;52.568;13.588;2022-12-10T10:19:30;-1.28;99.48
68977;SHT31;56029;52.568;13.588;2022-12-10T10:21:58;-1.24;99.25
68977;SHT31;56029;52.568;13.588;2022-12-10T10:24:31;-1.28;99.55
68977;SHT31;56029;52.568;13.588;2022-12-10T10:27:09;-1.28;99.48
68977;SHT31;56029;52.568;13.588;2022-12-10T10:29:36;-1.24;99.54
68977;SHT31;56029;52.568;13.588;2022-12-10T10:32:17;-1.24;99.59
68977;SHT31;56029;52.568;13.588;2022-12-10T10:34:45;-1.24;99.71
68977;SHT31;56029;52.568;13.588;2022-12-10T10:37:23;-1.28;99.99
68977;SHT31;56029;52.568;13.588;2022-12-10T10:39:51;-1.22;99.96
68977;SHT31;56029;52.568;13.588;2022-12-10T10:42:39;-1.30;99.45
68977;SHT31;56029;52.568;13.588;2022-12-10T10:48:21;-1.31;99.80
68977;SHT31;56029;52.568;13.588;2022-12-10T10:50:55;-1.34;99.20
68977;SHT31;56029;52.568;13.588;2022-12-10T10:53:35;-1.32;99.62
68977;SHT31;56029;52.568;13.588;2022-12-10T10:56:13;-1.36;99.16
68977;SHT31;56029;52.568;13.588;2022-12-10T10:58:58;-1.30;99.49
68977;SHT31;56029;52.568;13.588;2022-12-10T11:01:49;-1.27;99.48
68977;SHT31;56029;52.568;13.588;2022-12-10T11:04:17;-1.27;99.42
68977;SHT31;56029;52.568;13.588;2022-12-10T11:06:44;-1.24;99.48
68977;SHT31;56029;52.568;13.588;2022-12-10T11:09:19;-1.25;99.20
68977;SHT31;56029;52.568;13.588;2022-12-10T11:11:50;-1.21;99.74
68977;SHT31;56029;52.568;13.588;2022-12-10T11:16:41;-1.21;99.04
68977;SHT31;56029;52.568;13.588;2022-12-10T11:19:20;-1.14;99.48
68977;SHT31;56029;52.568;13.588;2022-12-10T11:21:47;-1.16;99.30
68977;SHT31;56029;52.568;13.588;2022-12-10T11:24:16;-1.16;98.98
68977;SHT31;56029;52.568;13.588;2022-12-10T11:26:52;-1.15;99.09
68977;SHT31;56029;52.568;13.588;2022-12-10T11:37:19;-1.14;99.34
68977;SHT31;56029;52.568;13.588;2022-12-10T11:39:54;-1.21;99.06
68977;SHT31;56029;52.568;13.588;2022-12-10T11:46:01;-1.28;99.14
68977;SHT31;56029;52.568;13.588;2022-12-10T11:54:53;-1.19;98.97
68977;SHT31;56029;52.568;13.588;2022-12-10T11:57:40;-1.25;99.26
68977;SHT31;56029;52.568;13.588;2022-12-10T12:02:59;-1.25;99.01
68977;SHT31;56029;52.568;13.588;2022-12-10T12:08:39;-1.25;99.00
68977;SHT31;56029;52.568;13.588;2022-12-10T12:14:19;-1.15;99.31
68977;SHT31;56029;52.568;13.588;2022-12-10T12:17:00;-1.28;98.69
68977;SHT31;56029;52.568;13.588;2022-12-10T12:19:57;-1.28;98.41
68977;SHT31;56029;52.568;13.588;2022-12-10T12:22:31;-1.22;98.39
68977;SHT31;56029;52.568;13.588;2022-12-10T12:25:27;-1.22;98.20
68977;SHT31;56029;52.568;13.588;2022-12-10T12:28:03;-1.22;98.76
68977;SHT31;56029;52.568;13.588;2022-12-10T12:30:32;-1.12;98.54
68977;SHT31;56029;52.568;13.588;2022-12-10T12:33:04;-1.19;98.55
68977;SHT31;56029;52.568;13.588;2022-12-10T12:35:56;-1.16;98.30
68977;SHT31;56029;52.568;13.588;2022-12-10T12:38:27;-1.22;98.00
68977;SHT31;56029;52.568;13.588;2022-12-10T12:41:15;-1.21;98.35
68977;SHT31;56029;52.568;13.588;2022-12-10T12:46:33;-1.19;97.99
68977;SHT31;56029;52.568;13.588;2022-12-10T12:49:13;-1.18;98.77
68977;SHT31;56029;52.568;13.588;2022-12-10T12:51:50;-1.14;98.72
68977;SHT31;56029;52.568;13.588;2022-12-10T12:54:17;-1.21;98.68
68977;SHT31;56029;52.568;13.588;2022-12-10T12:56:59;-1.18;99.04
68977;SHT31;56029;52.568;13.588;2022-12-10T12:59:36;-1.22;98.38
68977;SHT31;56029;52.568;13.588;2022-12-10T13:05:04;-1.22;98.61
68977;SHT31;56029;52.568;13.588;2022-12-10T13:07:31;-1.19;98.83
68977;SHT31;56029;52.568;13.588;2022-12-10T13:20:45;-1.14;99.16
68977;SHT31;56029;52.568;13.588;2022-12-10T13:39:19;-1.25;99.21
68977;SHT31;56029;52.568;13.588;2022-12-10T13:49:59;-1.21;99.55
68977;SHT31;56029;52.568;13.588;2022-12-10T13:55:37;-1.28;99.63
68977;SHT31;56029;52.568;13.588;2022-12-10T13:58:31;-1.28;99.94
68977;SHT31;56029;52.568;13.588;2022-12-10T14:01:13;-1.25;99.99
68977;SHT31;56029;52.568;13.588;2022-12-10T14:06:38;-1.27;99.96
68977;SHT31;56029;52.568;13.588;2022-12-10T14:09:26;-1.31;99.79
68977;SHT31;56029;52.568;13.588;2022-12-10T14:11:58;-1.30;99.99
68977;SHT31;56029;52.568;13.588;2022-12-10T14:14:30;-1.28;99.99
68977;SHT31;56029;52.568;13.588;2022-12-10T14:17:00;-1.31;99.99
68977;SHT31;56029;52.568;13.588;2022-12-10T14:19:27;-1.38;99.92
68977;SHT31;56029;52.568;13.588;2022-12-10T14:21:54;-1.38;99.99
68977;SHT31;56029;52.568;13.588;2022-12-10T14:26:59;-1.34;99.99
68977;SHT31;56029;52.568;13.588;2022-12-10T14:29:25;-1.32;99.99
68977;SHT31;56029;52.568;13.588;2022-12-10T14:31:50;-1.31;99.99
68977;SHT31;56029;52.568;13.588;2022-12-10T14:34:18;-1.31;99.87
68977;SHT31;56029;52.568;13.588;2022-12-10T14:36:49;-1.35;99.82
68977;SHT31;56029;52.568;13.588;2022-12-10T14:39:25;-1.32;99.80
68977;SHT31;56029;52.568;13.588;2022-12-10T14:41:53;-1.31;99.99
68977;SHT31;56029;52.568;13.588;2022-12-10T14:44:21;-1.32;99.96
68977;SHT31;56029;52.568;13.588;2022-12-10T14:46:49;-1.35;99.99
68977;SHT31;56029;52.568;13.588;2022-12-10T14:49:20;-1.36;99.99
68977;SHT31;56029;52.568;13.588;2022-12-10T14:51:45;-1.35;99.99
68977;SHT31;56029;52.568;13.588;2022-12-10T14:54:33;-1.34;99.99
68977;SHT31;56029;52.568;13.588;2022-12-10T14:57:07;-1.34;99.97
68977;SHT31;56029;52.568;13.588;2022-12-10T14:59:42;-1.32;99.52
68977;SHT31;56029;52.568;13.588;2022-12-10T15:02:38;-1.34;99.84
68977;SHT31;56029;52.568;13.588;2022-12-10T15:05:26;-1.36;99.99
68977;SHT31;56029;52.568;13.588;2022-12-10T15:07:58;-1.41;99.90
68977;SHT31;56029;52.568;13.588;2022-12-10T15:10:36;-1.38;99.99
68977;SHT31;56029;52.568;13.588;2022-12-10T15:13:03;-1.35;99.99
68977;SHT31;56029;52.568;13.588;2022-12-10T15:15:31;-1.31;99.99
68977;SHT31;56029;52.568;13.588;2022-12-10T15:18:14;-1.34;99.99
68977;SHT31;56029;52.568;13.588;2022-12-10T15:26:02;-1.38;99.99
68977;SHT31;56029;52.568;13.588;2022-12-10T15:28:34;-1.45;99.99
68977;SHT31;56029;52.568;13.588;2022-12-10T15:31:13;-1.45;99.99
68977;SHT31;56029;52.568;13.588;2022-12-10T15:34:08;-1.41;99.99
68977;SHT31;56029;52.568;13.588;2022-12-10T15:36:40;-1.38;99.99
68977;SHT31;56029;52.568;13.588;2022-12-10T15:39:12;-1.41;99.99
68977;SHT31;56029;52.568;13.588;2022-12-10T15:46:51;-1.32;99.99
68977;SHT31;56029;52.568;13.588;2022-12-10T15:49:17;-1.28;99.99
68977;SHT31;56029;52.568;13.588;2022-12-10T15:51:43;-1.32;99.99
68977;SHT31;56029;52.568;13.588;2022-12-10T15:54:21;-1.34;99.99
68977;SHT31;56029;52.568;13.588;2022-12-10T15:56:47;-1.39;99.99
68977;SHT31;56029;52.568;13.588;2022-12-10T15:59:13;-1.41;99.99
68977;SHT31;56029;52.568;13.588;2022-12-10T16:01:39;-1.41;99.99
68977;SHT31;56029;52.568;13.588;2022-12-10T16:04:05;-1.35;99.99
68977;SHT31;56029;52.568;13.588;2022-12-10T16:06:30;-1.35;99.99
68977;SHT31;56029;52.568;13.588;2022-12-10T16:08:56;-1.36;99.99
68977;SHT31;56029;52.568;13.588;2022-12-10T16:11:21;-1.35;99.99
68977;SHT31;56029;52.568;13.588;2022-12-10T16:13:50;-1.39;99.99
68977;SHT31;56029;52.568;13.588;2022-12-10T16:16:16;-1.35;99.99
68977;SHT31;56029;52.568;13.588;2022-12-10T16:18:42;-1.34;99.99
68977;SHT31;56029;52.568;13.588;2022-12-10T16:21:11;-1.34;99.97
68977;SHT31;56029;52.568;13.588;2022-12-10T16:23:37;-1.32;99.95
68977;SHT31;56029;52.568;13.588;2022-12-10T16:26:30;-1.31;99.73
68977;SHT31;56029;52.568;13.588;2022-12-10T16:28:55;-1.35;99.76
68977;SHT31;56029;52.568;13.588;2022-12-10T16:31:21;-1.34;99.91
68977;SHT31;56029;52.568;13.588;2022-12-10T16:33:47;-1.36;99.99
68977;SHT31;56029;52.568;13.588;2022-12-10T16:36:14;-1.42;99.68
68977;SHT31;56029;52.568;13.588;2022-12-10T16:38:40;-1.36;99.85
68977;SHT31;56029;52.568;13.588;2022-12-10T16:41:17;-1.34;99.69
68977;SHT31;56029;52.568;13.588;2022-12-10T16:43:43;-1.38;99.67
68977;SHT31;56029;52.568;13.588;2022-12-10T16:46:10;-1.36;99.98
68977;SHT31;56029;52.568;13.588;2022-12-10T16:48:36;-1.32;99.99
68977;SHT31;56029;52.568;13.588;2022-12-10T16:51:02;-1.36;99.99
68977;SHT31;56029;52.568;13.588;2022-12-10T16:53:29;-1.36;99.99
68977;SHT31;56029;52.568;13.588;2022-12-10T16:55:57;-1.36;99.99
68977;SHT31;56029;52.568;13.588;2022-12-10T16:58:23;-1.36;99.99
68977;SHT31;56029;52.568;13.588;2022-12-10T17:00:51;-1.35;99.99
68977;SHT31;56029;52.568;13.588;2022-12-10T17:03:20;-1.35;99.96
68977;SHT31;56029;52.568;13.588;2022-12-10T17:05:56;-1.39;99.77
68977;SHT31;56029;52.568;13.588;2022-12-10T17:08:23;-1.38;99.74
68977;SHT31;56029;52.568;13.588;2022-12-10T17:10:50;-1.38;99.99